createdAt,value
2022-09-24T00:01:33.003Z,7.37
2022-09-24T00:04:11.684Z,7.90
2022-09-24T00:06:43.139Z,7.80
2022-09-24T00:09:12.704Z,7.40
2022-09-24T00:11:47.890Z,6.80
2022-09-24T00:14:18.550Z,7.53
2022-09-24T00:16:55.829Z,7.03
2022-09-24T00:19:28.159Z,7.80
2022-09-24T00:21:56.700Z,7.47
2022-09-24T00:24:46.744Z,8.70
2022-09-24T00:27:18.030Z,8.00
2022-09-24T00:29:51.742Z,6.90
2022-09-24T00:32:27.980Z,7.80
2022-09-24T00:34:56.745Z,8.10
2022-09-24T00:37:24.833Z,7.47
2022-09-24T00:39:53.016Z,7.47
2022-09-24T00:42:37.517Z,8.00
2022-09-24T00:45:15.747Z,7.70
2022-09-24T00:47:46.278Z,7.47
2022-09-24T00:50:22.642Z,8.00
2022-09-24T00:53:03.860Z,8.37
2022-09-24T00:55:34.218Z,7.70
2022-09-24T00:58:05.984Z,7.53
2022-09-24T01:00:38.936Z,7.33
2022-09-24T01:03:10.497Z,9.10
2022-09-24T01:05:40.630Z,8.60
2022-09-24T01:08:07.724Z,8.57
2022-09-24T01:11:04.875Z,9.73
2022-09-24T01:14:20.343Z,9.33
2022-09-24T01:17:04.933Z,8.83
2022-09-24T01:19:51.030Z,9.80
2022-09-24T01:22:37.869Z,9.00
2022-09-24T01:25:32.754Z,9.63
2022-09-24T01:28:20.037Z,8.53
2022-09-24T01:30:51.073Z,9.33
2022-09-24T01:33:22.221Z,8.57
2022-09-24T01:35:58.335Z,8.77
2022-09-24T01:38:34.634Z,8.70
2022-09-24T01:41:03.946Z,8.70
2022-09-24T01:43:32.041Z,9.53
2022-09-24T01:46:06.441Z,8.87
2022-09-24T01:48:37.398Z,8.23
2022-09-24T01:51:22.165Z,9.47
2022-09-24T01:54:05.010Z,9.53
2022-09-24T01:56:46.714Z,9.43
2022-09-24T01:59:25.655Z,9.10
2022-09-24T02:02:03.290Z,9.20
2022-09-24T02:04:41.952Z,8.27
2022-09-24T02:07:19.327Z,8.20
2022-09-24T02:09:52.055Z,8.43
2022-09-24T02:12:37.898Z,8.47
2022-09-24T02:15:30.215Z,8.50
2022-09-24T02:18:04.875Z,8.40
2022-09-24T02:20:33.990Z,9.47
2022-09-24T02:23:01.263Z,9.07
2022-09-24T02:25:43.305Z,9.77
2022-09-24T02:28:10.421Z,9.47
2022-09-24T02:30:52.086Z,10.20
2022-09-24T02:33:42.537Z,9.33
2022-09-24T02:36:11.493Z,10.87
2022-09-24T02:38:38.570Z,10.60
2022-09-24T02:41:09.470Z,10.70
2022-09-24T02:43:36.653Z,10.90
2022-09-24T02:46:06.178Z,10.73
2022-09-24T02:48:33.120Z,10.80
2022-09-24T02:51:04.080Z,12.00
2022-09-24T02:53:33.947Z,11.07
2022-09-24T02:56:03.999Z,11.30
2022-09-24T02:58:31.505Z,10.57
2022-09-24T03:01:03.381Z,11.80
2022-09-24T03:03:30.528Z,10.80
2022-09-24T03:06:01.879Z,11.87
2022-09-24T03:08:31.278Z,12.53
2022-09-24T03:10:58.229Z,11.47
2022-09-24T03:13:27.755Z,12.50
2022-09-24T03:15:57.427Z,12.70
2022-09-24T03:18:24.284Z,13.50
2022-09-24T03:21:08.645Z,12.97
2022-09-24T03:23:36.511Z,12.17
2022-09-24T03:26:06.189Z,12.00
2022-09-24T03:28:33.195Z,12.33
2022-09-24T03:31:00.718Z,12.60
2022-09-24T03:33:43.195Z,11.37
2022-09-24T03:36:25.909Z,12.43
2022-09-24T03:38:56.510Z,12.30
2022-09-24T03:41:28.413Z,11.77
2022-09-24T03:43:58.441Z,12.23
2022-09-24T03:46:28.376Z,11.60
2022-09-24T03:49:00.446Z,12.17
2022-09-24T03:51:27.419Z,11.70
2022-09-24T03:53:54.312Z,12.80
2022-09-24T03:56:24.192Z,12.17
2022-09-24T03:58:51.092Z,12.10
2022-09-24T04:01:20.608Z,12.20
2022-09-24T04:03:51.620Z,12.90
2022-09-24T04:06:23.452Z,13.67
2022-09-24T04:08:57.051Z,13.50
2022-09-24T04:11:25.061Z,11.43
2022-09-24T04:13:52.975Z,13.37
2022-09-24T04:16:20.126Z,12.17
2022-09-24T04:18:48.073Z,13.27
2022-09-24T04:21:14.923Z,13.60
2022-09-24T04:23:44.249Z,11.90
2022-09-24T04:26:11.443Z,12.47
2022-09-24T04:28:43.142Z,13.70
2022-09-24T04:31:12.291Z,12.70
2022-09-24T04:33:39.254Z,12.27
2022-09-24T04:36:06.085Z,12.93
2022-09-24T04:38:33.038Z,12.60
2022-09-24T04:41:10.298Z,12.43
2022-09-24T04:43:37.280Z,13.80
2022-09-24T04:46:05.842Z,13.30
2022-09-24T04:48:32.780Z,14.87
2022-09-24T04:50:59.670Z,14.40
2022-09-24T04:53:27.164Z,14.60
2022-09-24T04:55:56.580Z,15.47
2022-09-24T04:58:23.632Z,14.67
2022-09-24T05:00:53.342Z,15.60
2022-09-24T05:03:27.781Z,16.70
2022-09-24T05:05:55.585Z,16.03
2022-09-24T05:08:23.026Z,15.70
2022-09-24T05:10:49.948Z,17.40
2022-09-24T05:13:23.472Z,19.10
2022-09-24T05:15:50.765Z,17.77
2022-09-24T05:18:22.389Z,14.60
2022-09-24T05:20:49.613Z,16.00
2022-09-24T05:23:18.864Z,14.77
2022-09-24T05:26:04.625Z,16.67
2022-09-24T05:28:35.414Z,15.67
2022-09-24T05:31:05.977Z,16.67
2022-09-24T05:33:36.193Z,16.23
2022-09-24T05:36:04.640Z,17.93
2022-09-24T05:38:32.923Z,19.03
2022-09-24T05:41:00.089Z,19.30
2022-09-24T05:43:31.891Z,17.90
2022-09-24T05:45:59.271Z,18.43
2022-09-24T05:48:28.824Z,19.10
2022-09-24T05:50:56.380Z,19.13
2022-09-24T05:53:24.060Z,20.13
2022-09-24T05:55:53.528Z,20.97
2022-09-24T05:58:23.583Z,21.33
2022-09-24T06:00:51.254Z,20.97
2022-09-24T06:03:20.792Z,20.63
2022-09-24T06:05:50.807Z,21.23
2022-09-24T06:08:22.103Z,21.67
2022-09-24T06:11:02.571Z,23.33
2022-09-24T06:13:32.330Z,21.13
2022-09-24T06:16:09.877Z,22.10
2022-09-24T06:18:40.073Z,22.90
2022-09-24T06:21:15.857Z,23.47
2022-09-24T06:23:45.434Z,22.67
2022-09-24T06:26:16.998Z,24.37
2022-09-24T06:28:43.989Z,24.37
2022-09-24T06:31:12.516Z,24.30
2022-09-24T06:33:40.599Z,24.60
2022-09-24T06:36:07.870Z,24.10
2022-09-24T06:38:35.450Z,25.67
2022-09-24T06:41:07.162Z,24.90
2022-09-24T06:43:35.252Z,25.97
2022-09-24T06:46:03.915Z,26.17
2022-09-24T06:48:33.824Z,26.33
2022-09-24T06:51:06.405Z,27.87
2022-09-24T06:53:33.702Z,26.20
2022-09-24T06:56:00.762Z,25.30
2022-09-24T06:58:27.734Z,25.87
2022-09-24T07:01:01.639Z,27.00
2022-09-24T07:03:32.070Z,27.03
2022-09-24T07:06:11.608Z,25.67
2022-09-24T07:08:38.697Z,23.40
2022-09-24T07:11:08.983Z,24.57
2022-09-24T07:13:35.872Z,26.43
2022-09-24T07:16:03.002Z,27.07
2022-09-24T07:18:34.615Z,26.93
2022-09-24T07:21:01.568Z,25.30
2022-09-24T07:23:30.922Z,25.33
2022-09-24T07:26:01.109Z,27.87
2022-09-24T07:28:28.056Z,27.47
2022-09-24T07:30:59.956Z,26.17
2022-09-24T07:33:27.549Z,26.27
2022-09-24T07:35:57.014Z,27.70
2022-09-24T07:38:24.635Z,29.30
2022-09-24T07:40:58.919Z,25.47
2022-09-24T07:43:26.931Z,26.50
2022-09-24T07:45:56.835Z,28.87
2022-09-24T07:48:24.359Z,27.10
2022-09-24T07:50:51.376Z,28.50
2022-09-24T07:53:18.333Z,27.97
2022-09-24T07:55:47.248Z,26.20
2022-09-24T07:58:15.055Z,26.90
2022-09-24T08:00:44.703Z,27.47
2022-09-24T08:03:11.711Z,25.57
2022-09-24T08:05:45.896Z,24.20
2022-09-24T08:08:15.258Z,27.10
2022-09-24T08:10:45.026Z,24.83
2022-09-24T08:13:14.991Z,25.87
2022-09-24T08:15:42.156Z,23.33
2022-09-24T08:18:09.729Z,24.90
2022-09-24T08:20:38.794Z,22.57
2022-09-24T08:23:10.528Z,23.90
2022-09-24T08:25:40.078Z,23.50
2022-09-24T08:28:08.686Z,22.80
2022-09-24T08:30:42.529Z,25.17
2022-09-24T08:33:10.503Z,23.70
2022-09-24T08:35:39.943Z,25.73
2022-09-24T08:38:10.629Z,23.90
2022-09-24T08:40:50.870Z,23.30
2022-09-24T08:43:45.256Z,24.47
2022-09-24T08:46:39.106Z,24.40
2022-09-24T08:49:16.278Z,26.67
2022-09-24T08:52:36.234Z,25.33
2022-09-24T08:55:14.325Z,24.17
2022-09-24T08:57:55.940Z,25.47
2022-09-24T09:00:23.713Z,24.33
2022-09-24T09:02:55.811Z,23.60
2022-09-24T09:06:14.976Z,22.47
2022-09-24T09:09:07.904Z,22.10
2022-09-24T09:11:39.449Z,21.53
2022-09-24T09:14:19.678Z,21.90
2022-09-24T09:16:54.232Z,20.40
2022-09-24T09:19:30.128Z,20.10
2022-09-24T09:22:14.330Z,19.87
2022-09-24T09:25:03.489Z,19.27
2022-09-24T09:27:33.974Z,17.97
2022-09-24T09:30:11.792Z,18.47
2022-09-24T09:33:07.625Z,19.00
2022-09-24T09:35:54.047Z,20.13
2022-09-24T09:38:40.779Z,20.33
2022-09-24T09:41:39.855Z,19.87
2022-09-24T09:44:23.529Z,18.30
2022-09-24T09:47:17.539Z,19.00
2022-09-24T09:49:47.594Z,19.07
2022-09-24T09:52:24.969Z,21.37
2022-09-24T09:54:52.223Z,20.10
2022-09-24T09:57:26.258Z,20.80
2022-09-24T09:59:55.310Z,20.43
2022-09-24T10:02:33.958Z,19.00
2022-09-24T10:05:06.683Z,20.97
2022-09-24T10:07:45.349Z,21.50
2022-09-24T10:10:25.099Z,20.37
2022-09-24T10:13:10.269Z,21.00
2022-09-24T10:16:03.807Z,21.27
2022-09-24T10:18:38.807Z,21.17
2022-09-24T10:21:12.051Z,20.13
2022-09-24T10:23:48.352Z,22.33
2022-09-24T10:26:18.963Z,22.50
2022-09-24T10:29:11.074Z,23.20
2022-09-24T10:31:40.447Z,22.00
2022-09-24T10:34:28.306Z,21.90
2022-09-24T10:37:16.365Z,22.73
2022-09-24T10:39:43.314Z,23.17
2022-09-24T10:42:25.637Z,24.57
2022-09-24T10:44:55.421Z,23.50
2022-09-24T10:47:50.657Z,24.77
2022-09-24T10:50:46.444Z,22.13
2022-09-24T10:53:41.540Z,21.70
2022-09-24T10:56:28.085Z,22.73
2022-09-24T10:59:25.021Z,22.30
2022-09-24T11:02:27.647Z,23.43
2022-09-24T11:05:06.532Z,23.43
2022-09-24T11:07:45.657Z,24.20
2022-09-24T11:10:51.333Z,24.03
2022-09-24T11:13:32.786Z,24.47
2022-09-24T11:16:18.183Z,24.53
2022-09-24T11:19:20.410Z,24.80
2022-09-24T11:22:24.817Z,25.10
2022-09-24T11:25:38.579Z,23.87
2022-09-24T11:28:30.032Z,24.10
2022-09-24T11:31:14.879Z,25.70
2022-09-24T11:34:11.158Z,25.83
2022-09-24T11:37:00.808Z,23.77
2022-09-24T11:40:08.718Z,23.50
2022-09-24T11:43:20.389Z,24.40
2022-09-24T11:46:06.238Z,23.17
2022-09-24T11:49:09.761Z,22.40
2022-09-24T11:52:22.408Z,24.27
2022-09-24T11:55:13.777Z,23.77
2022-09-24T11:58:14.051Z,25.43
2022-09-24T12:00:51.720Z,24.10
2022-09-24T12:04:08.201Z,23.40
2022-09-24T12:07:06.267Z,24.47
2022-09-24T12:10:07.764Z,23.30
2022-09-24T12:12:42.176Z,24.30
2022-09-24T12:15:22.319Z,23.23
2022-09-24T12:18:04.270Z,23.47
2022-09-24T12:20:33.558Z,21.80
2022-09-24T12:23:12.685Z,25.30
2022-09-24T12:25:47.609Z,22.47
2022-09-24T12:28:37.408Z,23.07
2022-09-24T12:31:38.750Z,23.03
2022-09-24T12:34:57.771Z,22.93
2022-09-24T12:37:33.121Z,24.17
2022-09-24T12:40:31.128Z,22.83
2022-09-24T12:43:03.590Z,23.27
2022-09-24T12:45:31.198Z,22.77
2022-09-24T12:48:01.140Z,22.50
2022-09-24T12:50:31.720Z,22.40
2022-09-24T12:53:01.170Z,21.77
2022-09-24T12:55:35.079Z,24.20
2022-09-24T12:58:40.860Z,20.80
2022-09-24T13:01:27.214Z,21.70
2022-09-24T13:04:15.135Z,22.83
2022-09-24T13:06:49.080Z,22.00
2022-09-24T13:09:38.378Z,22.30
2022-09-24T13:12:18.099Z,22.60
2022-09-24T13:15:04.315Z,24.00
2022-09-24T13:17:39.859Z,23.10
2022-09-24T13:20:19.165Z,27.23
2022-09-24T13:23:00.471Z,24.07
2022-09-24T13:25:29.999Z,30.80
2022-09-24T13:28:04.114Z,25.35
2022-09-24T13:30:40.940Z,26.07
2022-09-24T13:33:37.595Z,23.93
2022-09-24T13:36:19.305Z,23.50
2022-09-24T13:39:01.419Z,23.80
2022-09-24T13:42:04.634Z,24.57
2022-09-24T13:44:42.482Z,29.87
2022-09-24T13:47:51.157Z,23.53
2022-09-24T13:50:24.951Z,23.20
2022-09-24T13:53:17.206Z,27.17
2022-09-24T13:55:57.735Z,23.07
2022-09-24T13:58:35.703Z,25.30
2022-09-24T14:01:29.846Z,25.50
2022-09-24T14:04:22.187Z,24.07
2022-09-24T14:07:02.028Z,24.83
2022-09-24T14:09:28.894Z,25.43
2022-09-24T14:12:02.165Z,24.10
2022-09-24T14:14:34.940Z,25.20
2022-09-24T14:17:14.183Z,24.67
2022-09-24T14:19:42.309Z,25.30
2022-09-24T14:22:23.336Z,26.30
2022-09-24T14:25:07.268Z,25.67
2022-09-24T14:27:43.894Z,26.17
2022-09-24T14:30:23.962Z,25.30
2022-09-24T14:33:05.266Z,26.13
2022-09-24T14:35:37.574Z,24.80
2022-09-24T14:38:06.635Z,25.50
2022-09-24T14:40:50.151Z,26.17
2022-09-24T14:43:42.050Z,26.07
2022-09-24T14:46:34.429Z,25.00
2022-09-24T14:49:21.848Z,26.13
2022-09-24T14:52:16.099Z,24.47
2022-09-24T14:54:45.976Z,25.23
2022-09-24T14:57:25.349Z,20.60
2022-09-24T14:59:52.568Z,21.53
2022-09-24T15:02:37.240Z,21.23
2022-09-24T15:05:10.999Z,21.20
2022-09-24T15:07:38.114Z,19.30
2022-09-24T15:10:06.246Z,18.90
2022-09-24T15:12:37.949Z,19.60
2022-09-24T15:15:16.962Z,20.80
2022-09-24T15:17:47.502Z,20.30
2022-09-24T15:20:14.757Z,18.63
2022-09-24T15:22:41.799Z,19.07
2022-09-24T15:25:09.337Z,18.40
2022-09-24T15:27:42.738Z,19.20
2022-09-24T15:30:18.631Z,20.23
2022-09-24T15:32:45.817Z,18.97
2022-09-24T15:35:17.407Z,19.17
2022-09-24T15:37:45.371Z,20.67
2022-09-24T15:40:22.980Z,19.50
2022-09-24T15:42:51.059Z,19.97
2022-09-24T15:45:23.549Z,17.73
2022-09-24T15:47:54.334Z,18.27
2022-09-24T15:50:27.086Z,18.13
2022-09-24T15:52:57.061Z,19.20
2022-09-24T15:55:24.436Z,19.90
2022-09-24T15:57:51.575Z,19.10
2022-09-24T16:00:21.949Z,20.87
2022-09-24T16:02:57.617Z,19.40
2022-09-24T16:05:27.914Z,18.33
2022-09-24T16:07:54.797Z,18.17
2022-09-24T16:10:24.029Z,18.87
2022-09-24T16:12:58.401Z,15.70
2022-09-24T16:15:25.378Z,16.70
2022-09-24T16:17:57.161Z,15.30
2022-09-24T16:20:23.954Z,16.00
2022-09-24T16:22:50.929Z,16.47
2022-09-24T16:25:17.847Z,15.83
2022-09-24T16:27:44.728Z,15.57
2022-09-24T16:30:11.835Z,13.70
2022-09-24T16:32:41.796Z,14.30
2022-09-24T16:35:13.152Z,15.03
2022-09-24T16:37:41.139Z,15.70
2022-09-24T16:40:12.116Z,16.60
2022-09-24T16:42:39.136Z,16.50
2022-09-24T16:45:12.373Z,14.57
2022-09-24T16:47:41.870Z,13.80
2022-09-24T16:50:14.682Z,13.77
2022-09-24T16:52:44.977Z,14.07
2022-09-24T16:55:14.945Z,15.63
2022-09-24T16:57:44.323Z,15.17
2022-09-24T17:00:14.395Z,16.00
2022-09-24T17:02:45.960Z,19.33
2022-09-24T17:05:15.329Z,16.80
2022-09-24T17:07:42.263Z,14.23
2022-09-24T17:10:14.199Z,14.13
2022-09-24T17:12:48.740Z,14.83
2022-09-24T17:15:20.547Z,14.50
2022-09-24T17:17:50.852Z,13.47
2022-09-24T17:20:21.369Z,13.90
2022-09-24T17:22:49.033Z,15.40
2022-09-24T17:25:18.407Z,14.57
2022-09-24T17:27:47.976Z,16.40
2022-09-24T17:30:15.266Z,15.73
2022-09-24T17:32:42.123Z,14.40
2022-09-24T17:35:12.729Z,14.80
2022-09-24T17:37:39.672Z,14.77
2022-09-24T17:40:07.277Z,16.00
2022-09-24T17:42:34.696Z,19.10
2022-09-24T17:45:04.524Z,17.50
2022-09-24T17:47:51.464Z,14.90
2022-09-24T17:50:18.480Z,14.47
2022-09-24T17:52:45.391Z,13.80
2022-09-24T17:55:12.451Z,13.40
2022-09-24T17:57:39.433Z,14.53
2022-09-24T18:00:07.358Z,14.03
2022-09-24T18:02:36.523Z,17.20
2022-09-24T18:05:03.539Z,15.10
2022-09-24T18:07:32.648Z,15.83
2022-09-24T18:10:02.539Z,16.20
2022-09-24T18:12:29.382Z,13.03
2022-09-24T18:14:56.322Z,15.57
2022-09-24T18:17:23.136Z,13.50
2022-09-24T18:19:50.001Z,14.33
2022-09-24T18:22:18.921Z,14.23
2022-09-24T18:24:50.483Z,15.40
2022-09-24T18:27:17.409Z,14.80
2022-09-24T18:29:44.632Z,15.40
2022-09-24T18:32:15.901Z,14.80
2022-09-24T18:34:42.785Z,15.43
2022-09-24T18:37:10.287Z,15.10
2022-09-24T18:39:37.194Z,15.50
2022-09-24T18:42:06.308Z,14.60
2022-09-24T18:44:36.148Z,17.97
2022-09-24T18:47:03.107Z,16.90
2022-09-24T18:49:32.533Z,15.00
2022-09-24T18:52:01.888Z,15.20
2022-09-24T18:54:28.922Z,16.17
2022-09-24T18:56:55.736Z,16.27
2022-09-24T18:59:26.050Z,18.80
2022-09-24T19:01:55.999Z,17.50
2022-09-24T19:04:30.371Z,20.97
2022-09-24T19:07:03.275Z,17.47
2022-09-24T19:09:31.441Z,17.60
2022-09-24T19:12:05.883Z,18.50
2022-09-24T19:14:32.846Z,17.77
2022-09-24T19:16:59.704Z,18.33
2022-09-24T19:19:29.126Z,18.30
2022-09-24T19:22:00.771Z,18.00
2022-09-24T19:24:29.745Z,17.40
2022-09-24T19:27:01.178Z,19.07
2022-09-24T19:29:28.478Z,17.07
2022-09-24T19:31:56.281Z,17.87
2022-09-24T19:34:27.895Z,18.77
2022-09-24T19:36:54.958Z,20.17
2022-09-24T19:39:21.837Z,17.47
2022-09-24T19:41:52.858Z,16.37
2022-09-24T19:44:22.310Z,15.50
2022-09-24T19:46:51.843Z,16.63
2022-09-24T19:49:24.212Z,17.80
2022-09-24T19:51:53.156Z,19.37
2022-09-24T19:54:19.987Z,17.10
2022-09-24T19:56:46.989Z,18.80
2022-09-24T19:59:16.481Z,17.10
2022-09-24T20:01:44.705Z,17.13
2022-09-24T20:04:16.327Z,18.50
2022-09-24T20:06:43.246Z,18.53
2022-09-24T20:09:12.609Z,21.03
2022-09-24T20:11:39.408Z,18.67
2022-09-24T20:14:10.214Z,19.23
2022-09-24T20:16:42.727Z,19.90
2022-09-24T20:19:15.009Z,19.57
2022-09-24T20:21:42.206Z,18.80
2022-09-24T20:24:12.083Z,18.87
2022-09-24T20:26:59.842Z,18.17
2022-09-24T20:29:28.911Z,19.63
2022-09-24T20:31:56.543Z,18.60
2022-09-24T20:34:34.299Z,19.97
2022-09-24T20:37:06.937Z,19.23
2022-09-24T20:39:36.376Z,18.73
2022-09-24T20:42:05.782Z,20.47
2022-09-24T20:44:33.733Z,20.70
2022-09-24T20:47:03.024Z,19.80
2022-09-24T20:49:30.119Z,19.73
2022-09-24T20:51:57.974Z,20.00
2022-09-24T20:54:28.744Z,20.43
2022-09-24T20:56:56.539Z,18.87
2022-09-24T20:59:25.716Z,20.23
2022-09-24T21:01:57.771Z,20.43
2022-09-24T21:04:24.868Z,22.10
2022-09-24T21:06:51.832Z,21.20
2022-09-24T21:09:21.154Z,22.20
2022-09-24T21:11:50.222Z,21.20
2022-09-24T21:14:17.804Z,20.90
2022-09-24T21:16:45.479Z,21.10
2022-09-24T21:19:14.696Z,20.53
2022-09-24T21:21:44.374Z,21.60
2022-09-24T21:24:14.587Z,21.20
2022-09-24T21:26:45.240Z,21.63
2022-09-24T21:29:20.728Z,23.30
2022-09-24T21:31:48.605Z,20.47
2022-09-24T21:34:20.718Z,22.27
2022-09-24T21:36:48.193Z,21.50
2022-09-24T21:39:23.216Z,21.33
2022-09-24T21:41:53.025Z,19.57
2022-09-24T21:44:20.175Z,21.67
2022-09-24T21:46:52.263Z,20.80
2022-09-24T21:49:20.663Z,20.70
2022-09-24T21:51:47.744Z,21.30
2022-09-24T21:54:21.485Z,21.70
2022-09-24T21:56:48.661Z,21.13
2022-09-24T21:59:37.001Z,21.80
2022-09-24T22:02:12.502Z,18.77
2022-09-24T22:04:41.787Z,21.90
2022-09-24T22:07:11.254Z,21.60
2022-09-24T22:09:38.498Z,20.80
2022-09-24T22:12:05.483Z,22.40
2022-09-24T22:14:34.741Z,20.27
2022-09-24T22:17:05.879Z,19.70
2022-09-24T22:19:33.226Z,22.00
2022-09-24T22:22:03.080Z,19.80
2022-09-24T22:24:30.664Z,20.73
2022-09-24T22:27:01.117Z,22.87
2022-09-24T22:29:31.237Z,21.23
2022-09-24T22:31:58.344Z,21.57
2022-09-24T22:34:44.059Z,22.20
2022-09-24T22:37:12.319Z,21.00
2022-09-24T22:39:40.665Z,20.87
2022-09-24T22:42:07.876Z,20.80
2022-09-24T22:44:35.570Z,21.00
2022-09-24T22:47:02.704Z,20.80
2022-09-24T22:49:32.791Z,20.73
2022-09-24T22:52:00.436Z,21.13
2022-09-24T22:54:27.674Z,22.23
2022-09-24T22:56:56.619Z,20.63
2022-09-24T22:59:23.576Z,22.27
2022-09-24T23:01:51.347Z,24.20
2022-09-24T23:04:19.294Z,22.73
2022-09-24T23:06:49.018Z,23.07
2022-09-24T23:09:16.469Z,22.47
2022-09-24T23:11:44.942Z,21.90
2022-09-24T23:14:18.167Z,23.47
2022-09-24T23:16:46.897Z,23.00
2022-09-24T23:19:20.075Z,22.53
2022-09-24T23:21:49.899Z,23.03
2022-09-24T23:24:22.169Z,25.10
2022-09-24T23:26:55.951Z,25.40
2022-09-24T23:29:24.632Z,25.27
2022-09-24T23:31:54.086Z,26.73
2022-09-24T23:34:23.017Z,26.47
2022-09-24T23:36:50.020Z,26.83
2022-09-24T23:39:16.970Z,28.10
2022-09-24T23:41:46.375Z,29.27
2022-09-24T23:44:13.384Z,29.20
2022-09-24T23:46:40.472Z,28.20
2022-09-24T23:49:10.426Z,31.83
2022-09-24T23:51:42.414Z,29.70
2022-09-24T23:54:14.906Z,29.53
2022-09-24T23:56:41.793Z,30.20
2022-09-24T23:59:14.333Z,31.57
